sensor_id;sensor_type;location;lat;lon;timestamp;temperature;humidity
34249;DHT22;20508;50.834;3.160;2022-08-06T00:00:05;24.90;36.90
34249;DHT22;20508;50.834;3.160;2022-08-06T00:02:44;24.80;36.70
34249;DHT22;20508;50.834;3.160;2022-08-06T00:05:21;24.80;36.50
34249;DHT22;20508;50.834;3.160;2022-08-06T00:07:52;24.80;36.60
34249;DHT22;20508;50.834;3.160;2022-08-06T00:10:26;24.80;36.50
34249;DHT22;20508;50.834;3.160;2022-08-06T00:12:55;24.80;36.50
34249;DHT22;20508;50.834;3.160;2022-08-06T00:15:26;24.80;36.50
34249;DHT22;20508;50.834;3.160;2022-08-06T00:18:03;24.80;36.50
34249;DHT22;20508;50.834;3.160;2022-08-06T00:20:39;24.80;36.50
34249;DHT22;20508;50.834;3.160;2022-08-06T00:23:22;24.70;36.50
34249;DHT22;20508;50.834;3.160;2022-08-06T00:25:52;24.70;36.60
34249;DHT22;20508;50.834;3.160;2022-08-06T00:28:24;24.70;36.50
34249;DHT22;20508;50.834;3.160;2022-08-06T00:31:02;24.70;36.70
34249;DHT22;20508;50.834;3.160;2022-08-06T00:33:37;24.70;36.60
34249;DHT22;20508;50.834;3.160;2022-08-06T00:36:16;24.60;36.70
34249;DHT22;20508;50.834;3.160;2022-08-06T00:38:54;24.60;36.70
34249;DHT22;20508;50.834;3.160;2022-08-06T00:41:22;24.60;36.80
34249;DHT22;20508;50.834;3.160;2022-08-06T00:43:49;24.60;36.80
34249;DHT22;20508;50.834;3.160;2022-08-06T00:46:24;24.60;36.70
34249;DHT22;20508;50.834;3.160;2022-08-06T00:48:51;24.50;36.60
34249;DHT22;20508;50.834;3.160;2022-08-06T00:51:17;24.50;36.60
34249;DHT22;20508;50.834;3.160;2022-08-06T00:53:43;24.50;36.60
34249;DHT22;20508;50.834;3.160;2022-08-06T00:56:19;24.50;36.60
34249;DHT22;20508;50.834;3.160;2022-08-06T00:58:53;24.50;36.60
34249;DHT22;20508;50.834;3.160;2022-08-06T01:01:33;24.50;36.60
34249;DHT22;20508;50.834;3.160;2022-08-06T01:04:03;24.50;36.70
34249;DHT22;20508;50.834;3.160;2022-08-06T01:06:35;24.50;36.70
34249;DHT22;20508;50.834;3.160;2022-08-06T01:09:13;24.50;36.80
34249;DHT22;20508;50.834;3.160;2022-08-06T01:11:50;24.50;36.80
34249;DHT22;20508;50.834;3.160;2022-08-06T01:14:21;24.40;36.90
34249;DHT22;20508;50.834;3.160;2022-08-06T01:17:05;24.40;36.80
34249;DHT22;20508;50.834;3.160;2022-08-06T01:28:38;24.40;36.90
34249;DHT22;20508;50.834;3.160;2022-08-06T01:31:22;24.30;37.10
34249;DHT22;20508;50.834;3.160;2022-08-06T01:33:59;24.40;37.10
34249;DHT22;20508;50.834;3.160;2022-08-06T01:36:49;24.30;37.10
34249;DHT22;20508;50.834;3.160;2022-08-06T01:39:32;24.40;36.90
34249;DHT22;20508;50.834;3.160;2022-08-06T01:42:12;24.30;37.00
34249;DHT22;20508;50.834;3.160;2022-08-06T01:44:50;24.30;37.10
34249;DHT22;20508;50.834;3.160;2022-08-06T01:47:32;24.30;37.10
34249;DHT22;20508;50.834;3.160;2022-08-06T01:50:06;24.30;37.10
34249;DHT22;20508;50.834;3.160;2022-08-06T01:52:37;24.30;37.60
34249;DHT22;20508;50.834;3.160;2022-08-06T01:55:12;24.30;37.20
34249;DHT22;20508;50.834;3.160;2022-08-06T01:57:52;24.20;37.20
34249;DHT22;20508;50.834;3.160;2022-08-06T02:00:32;24.30;37.40
34249;DHT22;20508;50.834;3.160;2022-08-06T02:03:14;24.20;37.40
34249;DHT22;20508;50.834;3.160;2022-08-06T02:05:46;24.20;37.40
34249;DHT22;20508;50.834;3.160;2022-08-06T02:08:22;24.20;37.60
34249;DHT22;20508;50.834;3.160;2022-08-06T02:11:11;24.20;37.50
34249;DHT22;20508;50.834;3.160;2022-08-06T02:13:51;24.20;37.50
34249;DHT22;20508;50.834;3.160;2022-08-06T02:16:42;24.20;37.50
34249;DHT22;20508;50.834;3.160;2022-08-06T02:19:22;24.20;37.50
34249;DHT22;20508;50.834;3.160;2022-08-06T02:22:00;24.20;37.40
34249;DHT22;20508;50.834;3.160;2022-08-06T02:24:31;24.10;37.40
34249;DHT22;20508;50.834;3.160;2022-08-06T02:27:04;24.20;37.30
34249;DHT22;20508;50.834;3.160;2022-08-06T02:29:37;24.20;37.20
34249;DHT22;20508;50.834;3.160;2022-08-06T02:32:15;24.20;37.30
34249;DHT22;20508;50.834;3.160;2022-08-06T02:34:51;24.20;37.30
34249;DHT22;20508;50.834;3.160;2022-08-06T02:37:38;24.10;37.20
34249;DHT22;20508;50.834;3.160;2022-08-06T02:40:09;24.10;37.20
34249;DHT22;20508;50.834;3.160;2022-08-06T02:43:03;24.10;37.30
34249;DHT22;20508;50.834;3.160;2022-08-06T02:48:47;24.10;37.40
34249;DHT22;20508;50.834;3.160;2022-08-06T02:51:32;24.00;37.30
34249;DHT22;20508;50.834;3.160;2022-08-06T02:54:14;24.00;37.40
34249;DHT22;20508;50.834;3.160;2022-08-06T02:56:58;24.00;37.40
34249;DHT22;20508;50.834;3.160;2022-08-06T02:59:39;24.00;37.60
34249;DHT22;20508;50.834;3.160;2022-08-06T03:02:17;24.00;37.50
34249;DHT22;20508;50.834;3.160;2022-08-06T03:04:51;24.00;37.50
34249;DHT22;20508;50.834;3.160;2022-08-06T03:07:28;24.00;37.60
34249;DHT22;20508;50.834;3.160;2022-08-06T03:10:06;24.00;37.60
34249;DHT22;20508;50.834;3.160;2022-08-06T03:12:43;24.00;37.60
34249;DHT22;20508;50.834;3.160;2022-08-06T03:15:23;24.00;37.60
34249;DHT22;20508;50.834;3.160;2022-08-06T03:18:04;23.90;37.70
34249;DHT22;20508;50.834;3.160;2022-08-06T03:20:44;23.90;37.70
34249;DHT22;20508;50.834;3.160;2022-08-06T03:23:22;23.90;37.70
34249;DHT22;20508;50.834;3.160;2022-08-06T03:25:59;23.90;37.70
34249;DHT22;20508;50.834;3.160;2022-08-06T03:28:30;23.90;37.70
34249;DHT22;20508;50.834;3.160;2022-08-06T03:31:01;23.80;37.70
34249;DHT22;20508;50.834;3.160;2022-08-06T03:33:38;23.80;37.70
34249;DHT22;20508;50.834;3.160;2022-08-06T03:36:11;23.80;37.80
34249;DHT22;20508;50.834;3.160;2022-08-06T03:39:03;23.90;37.70
34249;DHT22;20508;50.834;3.160;2022-08-06T03:41:47;23.90;37.80
34249;DHT22;20508;50.834;3.160;2022-08-06T03:44:24;23.90;37.80
34249;DHT22;20508;50.834;3.160;2022-08-06T03:50:10;23.80;37.80
34249;DHT22;20508;50.834;3.160;2022-08-06T03:52:46;23.80;37.80
34249;DHT22;20508;50.834;3.160;2022-08-06T03:55:22;23.80;37.90
34249;DHT22;20508;50.834;3.160;2022-08-06T03:58:03;23.80;37.90
34249;DHT22;20508;50.834;3.160;2022-08-06T04:00:59;23.80;38.00
34249;DHT22;20508;50.834;3.160;2022-08-06T04:03:31;23.80;37.90
34249;DHT22;20508;50.834;3.160;2022-08-06T04:06:02;23.70;37.90
34249;DHT22;20508;50.834;3.160;2022-08-06T04:08:39;23.60;37.90
34249;DHT22;20508;50.834;3.160;2022-08-06T04:11:13;23.60;38.00
34249;DHT22;20508;50.834;3.160;2022-08-06T04:13:53;23.60;37.90
34249;DHT22;20508;50.834;3.160;2022-08-06T04:16:31;23.60;37.90
34249;DHT22;20508;50.834;3.160;2022-08-06T04:19:00;23.60;37.90
34249;DHT22;20508;50.834;3.160;2022-08-06T04:21:36;23.60;38.00
34249;DHT22;20508;50.834;3.160;2022-08-06T04:24:15;23.60;38.10
34249;DHT22;20508;50.834;3.160;2022-08-06T04:26:44;23.60;38.10
34249;DHT22;20508;50.834;3.160;2022-08-06T04:29:27;23.60;38.10
34249;DHT22;20508;50.834;3.160;2022-08-06T04:32:10;23.50;38.30
34249;DHT22;20508;50.834;3.160;2022-08-06T04:34:42;23.60;38.30
34249;DHT22;20508;50.834;3.160;2022-08-06T04:37:10;23.60;38.20
34249;DHT22;20508;50.834;3.160;2022-08-06T04:39:38;23.60;38.90
34249;DHT22;20508;50.834;3.160;2022-08-06T04:42:08;23.50;38.10
34249;DHT22;20508;50.834;3.160;2022-08-06T04:44:37;23.50;38.20
34249;DHT22;20508;50.834;3.160;2022-08-06T04:47:14;23.60;38.30
34249;DHT22;20508;50.834;3.160;2022-08-06T04:49:51;23.50;38.40
34249;DHT22;20508;50.834;3.160;2022-08-06T04:52:28;23.50;38.40
34249;DHT22;20508;50.834;3.160;2022-08-06T04:55:08;23.50;38.50
34249;DHT22;20508;50.834;3.160;2022-08-06T04:57:44;23.50;38.50
34249;DHT22;20508;50.834;3.160;2022-08-06T05:00:13;23.50;38.50
34249;DHT22;20508;50.834;3.160;2022-08-06T05:02:52;23.50;38.50
34249;DHT22;20508;50.834;3.160;2022-08-06T05:05:48;23.50;38.60
34249;DHT22;20508;50.834;3.160;2022-08-06T05:08:29;23.60;38.50
34249;DHT22;20508;50.834;3.160;2022-08-06T05:11:31;23.50;39.30
34249;DHT22;20508;50.834;3.160;2022-08-06T05:14:13;23.60;38.60
34249;DHT22;20508;50.834;3.160;2022-08-06T05:16:54;23.50;38.70
34249;DHT22;20508;50.834;3.160;2022-08-06T05:19:42;23.50;38.90
34249;DHT22;20508;50.834;3.160;2022-08-06T05:22:10;23.50;39.00
34249;DHT22;20508;50.834;3.160;2022-08-06T05:24:42;23.50;39.10
34249;DHT22;20508;50.834;3.160;2022-08-06T05:27:21;23.50;39.20
34249;DHT22;20508;50.834;3.160;2022-08-06T05:30:06;23.50;39.30
34249;DHT22;20508;50.834;3.160;2022-08-06T05:32:47;23.50;39.40
34249;DHT22;20508;50.834;3.160;2022-08-06T05:35:24;23.50;39.30
34249;DHT22;20508;50.834;3.160;2022-08-06T05:38:08;23.50;39.50
34249;DHT22;20508;50.834;3.160;2022-08-06T05:40:39;23.40;39.40
34249;DHT22;20508;50.834;3.160;2022-08-06T05:43:20;23.50;39.50
34249;DHT22;20508;50.834;3.160;2022-08-06T05:45:56;23.50;39.50
34249;DHT22;20508;50.834;3.160;2022-08-06T05:48:24;23.50;39.50
34249;DHT22;20508;50.834;3.160;2022-08-06T05:51:09;23.50;39.50
34249;DHT22;20508;50.834;3.160;2022-08-06T05:53:50;23.60;39.50
34249;DHT22;20508;50.834;3.160;2022-08-06T05:56:24;23.50;39.60
34249;DHT22;20508;50.834;3.160;2022-08-06T05:58:57;23.60;39.70
34249;DHT22;20508;50.834;3.160;2022-08-06T06:01:35;23.60;39.90
34249;DHT22;20508;50.834;3.160;2022-08-06T06:04:13;23.50;40.00
34249;DHT22;20508;50.834;3.160;2022-08-06T06:07:15;23.50;40.10
34249;DHT22;20508;50.834;3.160;2022-08-06T06:09:42;23.60;40.50
34249;DHT22;20508;50.834;3.160;2022-08-06T06:12:09;23.50;40.40
34249;DHT22;20508;50.834;3.160;2022-08-06T06:14:41;23.60;40.50
34249;DHT22;20508;50.834;3.160;2022-08-06T06:25:21;23.80;41.20
34249;DHT22;20508;50.834;3.160;2022-08-06T06:28:37;23.80;40.60
34249;DHT22;20508;50.834;3.160;2022-08-06T06:34:04;23.90;40.60
34249;DHT22;20508;50.834;3.160;2022-08-06T06:39:38;24.00;40.20
34249;DHT22;20508;50.834;3.160;2022-08-06T06:42:09;24.10;40.20
34249;DHT22;20508;50.834;3.160;2022-08-06T06:44:43;24.00;40.00
34249;DHT22;20508;50.834;3.160;2022-08-06T06:47:17;24.10;40.00
34249;DHT22;20508;50.834;3.160;2022-08-06T06:49:59;24.10;40.00
34249;DHT22;20508;50.834;3.160;2022-08-06T06:52:41;24.20;40.00
34249;DHT22;20508;50.834;3.160;2022-08-06T06:55:33;24.20;40.00
34249;DHT22;20508;50.834;3.160;2022-08-06T06:58:27;24.30;40.00
34249;DHT22;20508;50.834;3.160;2022-08-06T07:00:58;24.30;40.00
34249;DHT22;20508;50.834;3.160;2022-08-06T07:03:25;24.30;40.10
34249;DHT22;20508;50.834;3.160;2022-08-06T07:05:55;24.30;40.10
34249;DHT22;20508;50.834;3.160;2022-08-06T07:08:26;24.30;40.00
34249;DHT22;20508;50.834;3.160;2022-08-06T07:10:54;24.40;40.00
34249;DHT22;20508;50.834;3.160;2022-08-06T07:13:22;24.40;40.00
34249;DHT22;20508;50.834;3.160;2022-08-06T07:15:49;24.50;39.90
34249;DHT22;20508;50.834;3.160;2022-08-06T07:18:18;24.60;39.70
34249;DHT22;20508;50.834;3.160;2022-08-06T07:20:45;24.70;39.50
34249;DHT22;20508;50.834;3.160;2022-08-06T07:23:12;24.70;39.40
34249;DHT22;20508;50.834;3.160;2022-08-06T07:25:42;24.70;39.30
34249;DHT22;20508;50.834;3.160;2022-08-06T07:28:11;24.80;39.40
34249;DHT22;20508;50.834;3.160;2022-08-06T07:30:40;24.80;39.30
34249;DHT22;20508;50.834;3.160;2022-08-06T07:33:10;24.80;39.30
34249;DHT22;20508;50.834;3.160;2022-08-06T07:35:40;24.80;39.40
34249;DHT22;20508;50.834;3.160;2022-08-06T07:38:08;24.80;39.60
34249;DHT22;20508;50.834;3.160;2022-08-06T07:40:42;24.80;39.40
34249;DHT22;20508;50.834;3.160;2022-08-06T07:43:25;24.80;39.40
34249;DHT22;20508;50.834;3.160;2022-08-06T07:45:55;24.80;39.40
34249;DHT22;20508;50.834;3.160;2022-08-06T07:48:43;24.80;39.50
34249;DHT22;20508;50.834;3.160;2022-08-06T07:51:12;24.90;39.40
34249;DHT22;20508;50.834;3.160;2022-08-06T07:53:40;24.90;39.40
34249;DHT22;20508;50.834;3.160;2022-08-06T07:56:08;24.90;39.40
34249;DHT22;20508;50.834;3.160;2022-08-06T07:58:36;25.00;39.40
34249;DHT22;20508;50.834;3.160;2022-08-06T08:01:04;25.10;39.30
34249;DHT22;20508;50.834;3.160;2022-08-06T08:03:32;25.00;39.30
34249;DHT22;20508;50.834;3.160;2022-08-06T08:06:19;25.10;39.20
34249;DHT22;20508;50.834;3.160;2022-08-06T08:08:55;25.10;39.20
34249;DHT22;20508;50.834;3.160;2022-08-06T08:11:25;25.10;39.10
34249;DHT22;20508;50.834;3.160;2022-08-06T08:13:56;25.10;39.20
34249;DHT22;20508;50.834;3.160;2022-08-06T08:16:25;25.10;39.10
34249;DHT22;20508;50.834;3.160;2022-08-06T08:18:54;25.10;39.20
34249;DHT22;20508;50.834;3.160;2022-08-06T08:21:21;25.10;39.20
34249;DHT22;20508;50.834;3.160;2022-08-06T08:23:49;25.10;39.10
34249;DHT22;20508;50.834;3.160;2022-08-06T08:26:15;25.10;39.00
34249;DHT22;20508;50.834;3.160;2022-08-06T08:28:41;25.10;39.00
34249;DHT22;20508;50.834;3.160;2022-08-06T08:31:07;25.10;39.00
34249;DHT22;20508;50.834;3.160;2022-08-06T08:33:35;25.20;39.20
34249;DHT22;20508;50.834;3.160;2022-08-06T08:36:04;25.20;39.10
34249;DHT22;20508;50.834;3.160;2022-08-06T08:38:33;25.20;39.20
34249;DHT22;20508;50.834;3.160;2022-08-06T08:41:06;25.20;39.10
34249;DHT22;20508;50.834;3.160;2022-08-06T08:43:42;25.20;39.10
34249;DHT22;20508;50.834;3.160;2022-08-06T08:46:09;25.30;38.80
34249;DHT22;20508;50.834;3.160;2022-08-06T08:48:39;25.20;38.90
34249;DHT22;20508;50.834;3.160;2022-08-06T08:51:07;25.20;39.00
34249;DHT22;20508;50.834;3.160;2022-08-06T08:53:37;25.20;39.00
34249;DHT22;20508;50.834;3.160;2022-08-06T08:56:05;25.20;39.00
34249;DHT22;20508;50.834;3.160;2022-08-06T08:58:32;25.20;39.10
34249;DHT22;20508;50.834;3.160;2022-08-06T09:01:04;25.20;39.10
34249;DHT22;20508;50.834;3.160;2022-08-06T09:03:33;25.20;39.00
34249;DHT22;20508;50.834;3.160;2022-08-06T09:06:01;25.30;39.20
34249;DHT22;20508;50.834;3.160;2022-08-06T09:08:27;25.30;39.00
34249;DHT22;20508;50.834;3.160;2022-08-06T09:10:54;25.30;39.20
34249;DHT22;20508;50.834;3.160;2022-08-06T09:13:20;25.30;39.10
34249;DHT22;20508;50.834;3.160;2022-08-06T09:15:48;25.40;38.80
34249;DHT22;20508;50.834;3.160;2022-08-06T09:18:15;25.40;38.60
34249;DHT22;20508;50.834;3.160;2022-08-06T09:20:41;25.50;38.50
34249;DHT22;20508;50.834;3.160;2022-08-06T09:23:07;25.50;38.40
34249;DHT22;20508;50.834;3.160;2022-08-06T09:25:37;25.60;38.60
34249;DHT22;20508;50.834;3.160;2022-08-06T09:28:09;25.60;38.60
34249;DHT22;20508;50.834;3.160;2022-08-06T09:30:36;25.60;38.50
34249;DHT22;20508;50.834;3.160;2022-08-06T09:33:02;25.50;38.60
34249;DHT22;20508;50.834;3.160;2022-08-06T09:35:29;25.50;38.90
34249;DHT22;20508;50.834;3.160;2022-08-06T09:38:01;25.50;38.00
34249;DHT22;20508;50.834;3.160;2022-08-06T09:40:30;25.50;38.40
34249;DHT22;20508;50.834;3.160;2022-08-06T09:42:56;25.50;38.40
34249;DHT22;20508;50.834;3.160;2022-08-06T09:45:23;25.50;39.20
34249;DHT22;20508;50.834;3.160;2022-08-06T09:48:04;25.50;38.60
34249;DHT22;20508;50.834;3.160;2022-08-06T09:50:38;25.60;38.60
34249;DHT22;20508;50.834;3.160;2022-08-06T09:53:04;25.60;38.60
34249;DHT22;20508;50.834;3.160;2022-08-06T09:55:31;25.60;38.50
34249;DHT22;20508;50.834;3.160;2022-08-06T09:57:59;25.60;38.40
34249;DHT22;20508;50.834;3.160;2022-08-06T10:00:30;25.60;38.30
34249;DHT22;20508;50.834;3.160;2022-08-06T10:03:01;25.60;38.50
34249;DHT22;20508;50.834;3.160;2022-08-06T10:05:29;25.60;38.80
34249;DHT22;20508;50.834;3.160;2022-08-06T10:08:09;25.60;38.40
34249;DHT22;20508;50.834;3.160;2022-08-06T10:10:44;25.70;38.20
34249;DHT22;20508;50.834;3.160;2022-08-06T10:13:13;25.70;38.00
34249;DHT22;20508;50.834;3.160;2022-08-06T10:15:41;25.60;38.50
34249;DHT22;20508;50.834;3.160;2022-08-06T10:18:35;25.60;39.00
34249;DHT22;20508;50.834;3.160;2022-08-06T10:21:07;25.50;39.00
34249;DHT22;20508;50.834;3.160;2022-08-06T10:23:36;25.50;39.50
34249;DHT22;20508;50.834;3.160;2022-08-06T10:26:08;25.50;39.50
34249;DHT22;20508;50.834;3.160;2022-08-06T10:28:35;25.50;39.70
34249;DHT22;20508;50.834;3.160;2022-08-06T10:31:08;25.40;39.70
34249;DHT22;20508;50.834;3.160;2022-08-06T10:36:26;25.40;38.60
34249;DHT22;20508;50.834;3.160;2022-08-06T10:38:55;25.50;38.60
34249;DHT22;20508;50.834;3.160;2022-08-06T10:41:22;25.50;39.00
34249;DHT22;20508;50.834;3.160;2022-08-06T10:43:49;25.40;39.00
34249;DHT22;20508;50.834;3.160;2022-08-06T10:46:17;25.50;38.50
34249;DHT22;20508;50.834;3.160;2022-08-06T10:48:46;25.40;38.40
34249;DHT22;20508;50.834;3.160;2022-08-06T10:51:15;25.40;38.60
34249;DHT22;20508;50.834;3.160;2022-08-06T10:53:43;25.40;38.40
34249;DHT22;20508;50.834;3.160;2022-08-06T10:56:15;25.40;37.80
34249;DHT22;20508;50.834;3.160;2022-08-06T10:58:44;25.40;38.00
34249;DHT22;20508;50.834;3.160;2022-08-06T11:04:34;25.50;38.20
34249;DHT22;20508;50.834;3.160;2022-08-06T11:15:24;25.30;39.50
34249;DHT22;20508;50.834;3.160;2022-08-06T11:18:07;25.20;39.90
34249;DHT22;20508;50.834;3.160;2022-08-06T11:23:22;25.20;39.90
34249;DHT22;20508;50.834;3.160;2022-08-06T11:25:54;25.30;39.80
34249;DHT22;20508;50.834;3.160;2022-08-06T11:31:04;25.30;40.10
34249;DHT22;20508;50.834;3.160;2022-08-06T11:46:39;25.50;39.70
34249;DHT22;20508;50.834;3.160;2022-08-06T11:51:55;25.50;39.10
34249;DHT22;20508;50.834;3.160;2022-08-06T11:54:58;25.60;39.10
34249;DHT22;20508;50.834;3.160;2022-08-06T11:57:24;25.50;38.00
34249;DHT22;20508;50.834;3.160;2022-08-06T12:08:11;25.40;40.10
34249;DHT22;20508;50.834;3.160;2022-08-06T12:10:37;25.40;40.10
34249;DHT22;20508;50.834;3.160;2022-08-06T12:13:03;25.40;40.40
34249;DHT22;20508;50.834;3.160;2022-08-06T12:15:36;25.30;39.10
34249;DHT22;20508;50.834;3.160;2022-08-06T12:18:02;25.40;39.70
34249;DHT22;20508;50.834;3.160;2022-08-06T12:23:00;25.40;39.90
34249;DHT22;20508;50.834;3.160;2022-08-06T12:25:31;25.40;39.90
34249;DHT22;20508;50.834;3.160;2022-08-06T12:27:57;25.50;40.00
34249;DHT22;20508;50.834;3.160;2022-08-06T12:30:24;25.40;39.60
34249;DHT22;20508;50.834;3.160;2022-08-06T12:33:00;25.50;38.60
34249;DHT22;20508;50.834;3.160;2022-08-06T12:35:30;25.50;38.80
34249;DHT22;20508;50.834;3.160;2022-08-06T12:37:56;25.40;39.50
34249;DHT22;20508;50.834;3.160;2022-08-06T12:40:23;25.40;39.40
34249;DHT22;20508;50.834;3.160;2022-08-06T12:43:07;25.40;39.40
34249;DHT22;20508;50.834;3.160;2022-08-06T12:45:35;25.30;39.20
34249;DHT22;20508;50.834;3.160;2022-08-06T12:48:06;25.30;39.40
34249;DHT22;20508;50.834;3.160;2022-08-06T12:50:36;25.30;39.40
34249;DHT22;20508;50.834;3.160;2022-08-06T12:53:16;25.30;39.90
34249;DHT22;20508;50.834;3.160;2022-08-06T12:58:28;25.30;39.20
34249;DHT22;20508;50.834;3.160;2022-08-06T13:00:58;25.40;38.40
34249;DHT22;20508;50.834;3.160;2022-08-06T13:03:27;25.30;39.10
34249;DHT22;20508;50.834;3.160;2022-08-06T13:05:57;25.40;39.60
34249;DHT22;20508;50.834;3.160;2022-08-06T13:08:25;25.40;38.90
34249;DHT22;20508;50.834;3.160;2022-08-06T13:10:53;25.40;38.80
34249;DHT22;20508;50.834;3.160;2022-08-06T13:13:20;25.40;37.90
34249;DHT22;20508;50.834;3.160;2022-08-06T13:16:04;25.40;38.10
34249;DHT22;20508;50.834;3.160;2022-08-06T13:18:31;25.50;38.90
34249;DHT22;20508;50.834;3.160;2022-08-06T13:20:58;25.40;38.50
34249;DHT22;20508;50.834;3.160;2022-08-06T13:23:32;25.40;38.40
34249;DHT22;20508;50.834;3.160;2022-08-06T13:26:11;25.40;36.80
34249;DHT22;20508;50.834;3.160;2022-08-06T13:28:37;25.40;36.70
34249;DHT22;20508;50.834;3.160;2022-08-06T13:31:20;25.40;37.00
34249;DHT22;20508;50.834;3.160;2022-08-06T13:33:59;25.40;36.20
34249;DHT22;20508;50.834;3.160;2022-08-06T13:36:30;25.40;37.20
34249;DHT22;20508;50.834;3.160;2022-08-06T13:39:23;25.40;36.40
34249;DHT22;20508;50.834;3.160;2022-08-06T13:42:05;25.50;36.80
34249;DHT22;20508;50.834;3.160;2022-08-06T13:44:40;25.40;36.90
34249;DHT22;20508;50.834;3.160;2022-08-06T13:47:08;25.30;37.40
34249;DHT22;20508;50.834;3.160;2022-08-06T13:49:42;25.30;38.20
34249;DHT22;20508;50.834;3.160;2022-08-06T13:52:09;25.30;37.80
34249;DHT22;20508;50.834;3.160;2022-08-06T13:54:35;25.40;38.50
34249;DHT22;20508;50.834;3.160;2022-08-06T13:57:02;25.40;38.50
34249;DHT22;20508;50.834;3.160;2022-08-06T13:59:30;25.40;38.50
34249;DHT22;20508;50.834;3.160;2022-08-06T14:01:58;25.50;38.60
34249;DHT22;20508;50.834;3.160;2022-08-06T14:04:32;25.50;38.40
34249;DHT22;20508;50.834;3.160;2022-08-06T14:06:58;25.60;38.70
34249;DHT22;20508;50.834;3.160;2022-08-06T14:09:27;25.60;38.90
34249;DHT22;20508;50.834;3.160;2022-08-06T14:11:58;25.60;38.80
34249;DHT22;20508;50.834;3.160;2022-08-06T14:14:26;25.60;38.60
34249;DHT22;20508;50.834;3.160;2022-08-06T14:16:57;25.50;38.90
34249;DHT22;20508;50.834;3.160;2022-08-06T14:19:24;25.60;39.00
34249;DHT22;20508;50.834;3.160;2022-08-06T14:21:52;25.50;39.00
34249;DHT22;20508;50.834;3.160;2022-08-06T14:24:20;25.50;39.10
34249;DHT22;20508;50.834;3.160;2022-08-06T14:26:46;25.50;39.20
34249;DHT22;20508;50.834;3.160;2022-08-06T14:29:12;25.60;39.30
34249;DHT22;20508;50.834;3.160;2022-08-06T14:31:41;25.60;39.50
34249;DHT22;20508;50.834;3.160;2022-08-06T14:34:08;25.60;39.60
34249;DHT22;20508;50.834;3.160;2022-08-06T14:36:37;25.50;39.70
34249;DHT22;20508;50.834;3.160;2022-08-06T14:39:04;25.60;39.40
34249;DHT22;20508;50.834;3.160;2022-08-06T14:41:31;25.60;38.20
34249;DHT22;20508;50.834;3.160;2022-08-06T14:44:15;25.60;38.20
34249;DHT22;20508;50.834;3.160;2022-08-06T14:47:00;25.60;39.10
34249;DHT22;20508;50.834;3.160;2022-08-06T14:49:26;25.60;39.80
34249;DHT22;20508;50.834;3.160;2022-08-06T14:51:52;25.60;38.40
34249;DHT22;20508;50.834;3.160;2022-08-06T14:54:18;25.60;38.40
34249;DHT22;20508;50.834;3.160;2022-08-06T14:56:46;25.50;39.20
34249;DHT22;20508;50.834;3.160;2022-08-06T14:59:13;25.50;39.60
34249;DHT22;20508;50.834;3.160;2022-08-06T15:01:39;25.50;39.70
34249;DHT22;20508;50.834;3.160;2022-08-06T15:04:05;25.50;40.00
34249;DHT22;20508;50.834;3.160;2022-08-06T15:06:32;25.50;40.30
34249;DHT22;20508;50.834;3.160;2022-08-06T15:08:58;25.50;40.40
34249;DHT22;20508;50.834;3.160;2022-08-06T15:11:24;25.40;40.80
34249;DHT22;20508;50.834;3.160;2022-08-06T15:13:50;25.50;41.20
34249;DHT22;20508;50.834;3.160;2022-08-06T15:16:18;25.50;41.00
34249;DHT22;20508;50.834;3.160;2022-08-06T15:18:45;25.50;41.00
34249;DHT22;20508;50.834;3.160;2022-08-06T15:21:11;25.50;39.30
34249;DHT22;20508;50.834;3.160;2022-08-06T15:23:38;25.50;39.30
34249;DHT22;20508;50.834;3.160;2022-08-06T15:26:04;25.50;39.70
34249;DHT22;20508;50.834;3.160;2022-08-06T15:28:30;25.50;38.20
34249;DHT22;20508;50.834;3.160;2022-08-06T15:30:57;25.50;38.60
34249;DHT22;20508;50.834;3.160;2022-08-06T15:33:27;25.50;38.60
34249;DHT22;20508;50.834;3.160;2022-08-06T15:35:53;25.60;37.40
34249;DHT22;20508;50.834;3.160;2022-08-06T15:38:22;25.50;37.20
34249;DHT22;20508;50.834;3.160;2022-08-06T15:40:48;25.50;36.70
34249;DHT22;20508;50.834;3.160;2022-08-06T15:43:17;25.50;37.00
34249;DHT22;20508;50.834;3.160;2022-08-06T15:45:48;25.50;36.70
34249;DHT22;20508;50.834;3.160;2022-08-06T15:48:14;25.50;36.70
34249;DHT22;20508;50.834;3.160;2022-08-06T15:50:43;25.50;36.50
34249;DHT22;20508;50.834;3.160;2022-08-06T15:53:12;25.50;37.20
34249;DHT22;20508;50.834;3.160;2022-08-06T15:55:39;25.50;37.10
34249;DHT22;20508;50.834;3.160;2022-08-06T15:58:06;25.40;37.40
34249;DHT22;20508;50.834;3.160;2022-08-06T16:00:34;25.40;37.70
34249;DHT22;20508;50.834;3.160;2022-08-06T16:03:00;25.50;38.40
34249;DHT22;20508;50.834;3.160;2022-08-06T16:05:27;25.40;38.30
34249;DHT22;20508;50.834;3.160;2022-08-06T16:07:55;25.50;38.60
34249;DHT22;20508;50.834;3.160;2022-08-06T16:10:22;25.40;39.30
34249;DHT22;20508;50.834;3.160;2022-08-06T16:12:48;25.40;38.10
34249;DHT22;20508;50.834;3.160;2022-08-06T16:15:14;25.50;38.60
34249;DHT22;20508;50.834;3.160;2022-08-06T16:17:41;25.50;38.20
34249;DHT22;20508;50.834;3.160;2022-08-06T16:20:07;25.50;38.40
34249;DHT22;20508;50.834;3.160;2022-08-06T16:22:36;25.50;37.80
34249;DHT22;20508;50.834;3.160;2022-08-06T16:25:02;25.50;37.70
34249;DHT22;20508;50.834;3.160;2022-08-06T16:27:29;25.50;38.20
34249;DHT22;20508;50.834;3.160;2022-08-06T16:29:55;25.50;38.30
34249;DHT22;20508;50.834;3.160;2022-08-06T16:32:21;25.50;37.40
34249;DHT22;20508;50.834;3.160;2022-08-06T16:34:47;25.50;37.90
34249;DHT22;20508;50.834;3.160;2022-08-06T16:37:17;25.50;38.60
34249;DHT22;20508;50.834;3.160;2022-08-06T16:39:43;25.50;38.20
34249;DHT22;20508;50.834;3.160;2022-08-06T16:42:12;25.50;38.50
34249;DHT22;20508;50.834;3.160;2022-08-06T16:44:38;25.50;38.90
34249;DHT22;20508;50.834;3.160;2022-08-06T16:47:05;25.60;39.10
34249;DHT22;20508;50.834;3.160;2022-08-06T16:49:31;25.60;39.20
34249;DHT22;20508;50.834;3.160;2022-08-06T16:51:57;25.60;39.50
34249;DHT22;20508;50.834;3.160;2022-08-06T16:54:23;25.60;39.70
34249;DHT22;20508;50.834;3.160;2022-08-06T16:56:49;25.60;38.10
34249;DHT22;20508;50.834;3.160;2022-08-06T16:59:15;25.60;38.50
34249;DHT22;20508;50.834;3.160;2022-08-06T17:01:44;25.60;38.00
34249;DHT22;20508;50.834;3.160;2022-08-06T17:04:30;25.60;37.40
34249;DHT22;20508;50.834;3.160;2022-08-06T17:06:56;25.60;37.20
34249;DHT22;20508;50.834;3.160;2022-08-06T17:09:25;25.50;37.40
34249;DHT22;20508;50.834;3.160;2022-08-06T17:11:53;25.50;38.40
34249;DHT22;20508;50.834;3.160;2022-08-06T17:14:19;25.50;38.50
34249;DHT22;20508;50.834;3.160;2022-08-06T17:16:48;25.50;38.20
34249;DHT22;20508;50.834;3.160;2022-08-06T17:19:15;25.50;38.10
34249;DHT22;20508;50.834;3.160;2022-08-06T17:21:41;25.50;39.00